Time;durP1;ratioP1;P1;durP2;ratioP2;P2;SDS_P1;SDS_P2;PMS_P1;PMS_P2;Temp;Humidity;BMP_temperature;BMP_pressure;BME280_temperature;BME280_humidity;BME280_pressure;Samples;Min_cycle;Max_cycle;Signal;HPM_P1;HPM_P2
2023/01/03 00:00:36;;;;;;;20.38;12.45;;;;;;;;;;5093418;28;20414;-74
2023/01/03 00:03:21;;;;;;;22.23;12.70;;;;;;;;;;5079778;28;20032;-73
2023/01/03 00:06:14;;;;;;;18.50;12.18;;;;;;;;;;5080220;28;20112;-73
2023/01/03 00:09:01;;;;;;;17.02;11.23;;;;;;;;;;5094348;28;20430;-73
2023/01/03 00:14:51;;;;;;;18.90;10.95;;;;;;;;;;5094405;28;20020;-74
2023/01/03 00:17:37;;;;;;;17.00;11.05;;;;;;;;;;5080751;28;20031;-74
2023/01/03 00:20:22;;;;;;;16.75;11.23;;;;;;;;;;5080018;28;20027;-73
2023/01/03 00:23:08;;;;;;;20.45;12.10;;;;;;;;;;5093399;28;20035;-73
2023/01/03 00:25:54;;;;;;;18.15;11.15;;;;;;;;;;5093407;28;20127;-74
2023/01/03 00:28:39;;;;;;;19.77;11.98;;;;;;;;;;5094220;28;20038;-74
2023/01/03 00:31:25;;;;;;;19.17;11.80;;;;;;;;;;5093152;28;20110;-73
2023/01/03 00:34:10;;;;;;;17.92;11.88;;;;;;;;;;5092292;28;20021;-74
2023/01/03 00:36:56;;;;;;;17.60;12.43;;;;;;;;;;5093856;28;20023;-74
2023/01/03 00:39:42;;;;;;;20.90;12.85;;;;;;;;;;5093570;28;20024;-74
2023/01/03 00:42:28;;;;;;;18.90;12.50;;;;;;;;;;5093845;28;20016;-74
2023/01/03 00:45:14;;;;;;;19.77;13.13;;;;;;;;;;5078341;28;20024;-73
2023/01/03 00:47:59;;;;;;;23.05;14.30;;;;;;;;;;5093262;28;20361;-74
2023/01/03 00:50:45;;;;;;;25.08;15.13;;;;;;;;;;5093631;28;20024;-73
2023/01/03 00:53:30;;;;;;;27.80;15.82;;;;;;;;;;5093493;28;20395;-73
2023/01/03 00:56:17;;;;;;;23.92;15.15;;;;;;;;;;5093436;28;20028;-73
2023/01/03 00:59:03;;;;;;;21.45;15.15;;;;;;;;;;5093619;28;20035;-73
2023/01/03 01:01:53;;;;;;;23.92;15.25;;;;;;;;;;5093105;28;20450;-73
2023/01/03 01:04:39;;;;;;;24.77;15.30;;;;;;;;;;5092545;28;20446;-74
2023/01/03 01:07:24;;;;;;;23.40;14.77;;;;;;;;;;5079699;28;20102;-73
2023/01/03 01:10:10;;;;;;;21.80;14.38;;;;;;;;;;5094124;28;20027;-74
2023/01/03 01:12:56;;;;;;;21.95;14.38;;;;;;;;;;5093426;28;20485;-74
2023/01/03 01:15:41;;;;;;;21.85;14.57;;;;;;;;;;5094359;28;20106;-72
2023/01/03 01:18:27;;;;;;;22.15;14.18;;;;;;;;;;5092843;28;20024;-73
2023/01/03 01:21:14;;;;;;;21.67;13.60;;;;;;;;;;5092176;28;20027;-72
2023/01/03 01:23:59;;;;;;;18.95;12.93;;;;;;;;;;5092174;28;20019;-73
2023/01/03 01:26:45;;;;;;;21.90;13.60;;;;;;;;;;5093398;28;20039;-72
2023/01/03 01:29:31;;;;;;;21.88;14.55;;;;;;;;;;5093421;28;20050;-73
2023/01/03 01:32:17;;;;;;;20.23;12.85;;;;;;;;;;5093188;28;20024;-74
2023/01/03 01:35:02;;;;;;;21.75;13.60;;;;;;;;;;5092225;28;20446;-73
2023/01/03 01:37:48;;;;;;;22.10;13.75;;;;;;;;;;5093169;28;20031;-74
2023/01/03 01:40:33;;;;;;;20.27;13.35;;;;;;;;;;5092608;28;20073;-73
2023/01/03 01:46:26;;;;;;;20.30;13.32;;;;;;;;;;5093594;28;20509;-73
2023/01/03 01:49:20;;;;;;;20.67;12.65;;;;;;;;;;5096048;28;20012;-74
2023/01/03 01:52:06;;;;;;;22.33;13.88;;;;;;;;;;5082207;28;20057;-73
2023/01/03 01:54:53;;;;;;;21.88;14.07;;;;;;;;;;5096456;28;20020;-74
2023/01/03 01:57:39;;;;;;;23.67;14.73;;;;;;;;;;5082435;28;20112;-73
2023/01/03 02:00:25;;;;;;;25.40;16.30;;;;;;;;;;5095719;28;20028;-73
2023/01/03 02:03:11;;;;;;;26.23;16.08;;;;;;;;;;5097452;28;20020;-74
2023/01/03 02:05:57;;;;;;;26.00;16.25;;;;;;;;;;5096398;28;20346;-74
2023/01/03 02:08:43;;;;;;;25.10;16.75;;;;;;;;;;5096919;28;20149;-72
2023/01/03 02:11:38;;;;;;;26.38;16.83;;;;;;;;;;5095608;28;20012;-73
2023/01/03 02:14:36;;;;;;;26.38;15.50;;;;;;;;;;5095568;28;20039;-74
2023/01/03 02:17:36;;;;;;;22.15;14.40;;;;;;;;;;5095302;28;20099;-74
2023/01/03 02:20:22;;;;;;;22.77;13.77;;;;;;;;;;5095244;28;20020;-73
2023/01/03 02:23:08;;;;;;;31.63;18.25;;;;;;;;;;5095894;28;20037;-73
2023/01/03 02:26:19;;;;;;;24.65;15.55;;;;;;;;;;5096492;28;20017;-73
2023/01/03 02:29:10;;;;;;;25.17;16.00;;;;;;;;;;5096379;28;20028;-73
2023/01/03 02:32:05;;;;;;;24.42;15.48;;;;;;;;;;5095191;28;20105;-73
2023/01/03 02:34:59;;;;;;;23.02;14.82;;;;;;;;;;5094495;28;20020;-73
2023/01/03 02:38:08;;;;;;;22.48;14.85;;;;;;;;;;5095499;28;20077;-73
2023/01/03 02:41:03;;;;;;;24.02;15.77;;;;;;;;;;5095639;28;20038;-74
2023/01/03 02:44:02;;;;;;;28.38;17.08;;;;;;;;;;5094580;28;20020;-73
2023/01/03 02:47:07;;;;;;;30.77;19.25;;;;;;;;;;5081704;28;20034;-73
2023/01/03 02:49:55;;;;;;;28.95;18.75;;;;;;;;;;5079853;28;20108;-73
2023/01/03 02:52:41;;;;;;;30.95;19.42;;;;;;;;;;5096271;28;20028;-73
2023/01/03 02:55:28;;;;;;;29.90;19.38;;;;;;;;;;5081733;28;20032;-73
2023/01/03 02:58:18;;;;;;;27.83;18.45;;;;;;;;;;5080687;28;20430;-73
2023/01/03 03:01:05;;;;;;;29.67;19.38;;;;;;;;;;5080768;28;20036;-73
2023/01/03 03:03:51;;;;;;;29.67;18.73;;;;;;;;;;5096202;28;20102;-73
2023/01/03 03:06:40;;;;;;;29.55;20.40;;;;;;;;;;5079974;28;20354;-74
2023/01/03 03:09:25;;;;;;;30.30;19.50;;;;;;;;;;5094221;28;20407;-72
2023/01/03 03:15:17;;;;;;;28.50;18.83;;;;;;;;;;5094660;28;20028;-73
2023/01/03 03:18:11;;;;;;;26.83;17.58;;;;;;;;;;5095470;28;20020;-73
2023/01/03 03:30:24;;;;;;;29.52;19.08;;;;;;;;;;5094613;28;20027;-73
2023/01/03 03:33:12;;;;;;;32.70;19.40;;;;;;;;;;5094444;28;20038;-74
2023/01/03 03:36:01;;;;;;;27.25;18.55;;;;;;;;;;5082179;28;20016;-73
2023/01/03 03:38:47;;;;;;;27.70;18.27;;;;;;;;;;5080063;28;20012;-73
2023/01/03 03:45:01;;;;;;;31.60;18.73;;;;;;;;;;5094138;28;20016;-73
2023/01/03 03:47:53;;;;;;;28.40;17.55;;;;;;;;;;5080492;28;20024;-73
2023/01/03 03:50:38;;;;;;;29.33;19.25;;;;;;;;;;5095070;28;20052;-74
2023/01/03 03:53:26;;;;;;;29.90;19.83;;;;;;;;;;5093364;28;20093;-73
2023/01/03 03:56:13;;;;;;;26.88;18.40;;;;;;;;;;5094438;28;20020;-73
2023/01/03 03:59:01;;;;;;;31.88;19.67;;;;;;;;;;5093124;28;20078;-74
2023/01/03 04:01:47;;;;;;;30.77;20.05;;;;;;;;;;5093909;28;20035;-73
2023/01/03 04:04:36;;;;;;;31.45;20.48;;;;;;;;;;5095124;28;20035;-73
2023/01/03 04:07:22;;;;;;;33.67;22.33;;;;;;;;;;5093908;28;20465;-74
2023/01/03 04:10:08;;;;;;;36.30;20.92;;;;;;;;;;5095080;28;20028;-73
2023/01/03 04:12:54;;;;;;;34.05;20.98;;;;;;;;;;5094354;28;20020;-74
2023/01/03 04:15:39;;;;;;;27.05;18.42;;;;;;;;;;5094695;28;20153;-73
2023/01/03 04:18:25;;;;;;;33.60;20.42;;;;;;;;;;5093958;28;20016;-74
2023/01/03 04:21:10;;;;;;;27.83;19.65;;;;;;;;;;5094293;28;20453;-74
2023/01/03 04:23:56;;;;;;;29.45;19.33;;;;;;;;;;5094041;28;20024;-74
2023/01/03 04:26:41;;;;;;;30.42;19.30;;;;;;;;;;5079958;28;20043;-73
2023/01/03 04:29:27;;;;;;;33.50;21.55;;;;;;;;;;5094873;28;20024;-74
2023/01/03 04:32:13;;;;;;;32.53;21.70;;;;;;;;;;5094582;28;20441;-74
2023/01/03 04:34:58;;;;;;;31.90;20.85;;;;;;;;;;5094127;28;20074;-74
2023/01/03 04:37:44;;;;;;;31.17;20.08;;;;;;;;;;5095081;28;20012;-75
2023/01/03 04:40:29;;;;;;;34.65;21.90;;;;;;;;;;5079218;28;20016;-75
2023/01/03 04:46:19;;;;;;;32.42;19.88;;;;;;;;;;5094629;28;20019;-73
2023/01/03 04:49:06;;;;;;;30.75;18.98;;;;;;;;;;5079738;28;20450;-75
2023/01/03 04:51:51;;;;;;;32.55;19.42;;;;;;;;;;5084749;28;20031;-73
2023/01/03 04:54:37;;;;;;;26.75;16.85;;;;;;;;;;5113526;28;20020;-73
2023/01/03 04:57:23;;;;;;;29.15;16.35;;;;;;;;;;5112985;28;20016;-73
2023/01/03 05:00:09;;;;;;;30.73;17.83;;;;;;;;;;5114877;28;20012;-73
2023/01/03 05:02:54;;;;;;;22.40;14.93;;;;;;;;;;5116532;28;20036;-75
2023/01/03 05:05:40;;;;;;;25.33;15.55;;;;;;;;;;5113171;28;20000;-72
2023/01/03 05:08:26;;;;;;;28.15;14.48;;;;;;;;;;5111783;28;20490;-74
2023/01/03 05:11:11;;;;;;;22.58;14.82;;;;;;;;;;5097543;28;20031;-73
2023/01/03 05:13:57;;;;;;;21.08;14.20;;;;;;;;;;5108491;28;20012;-73
2023/01/03 05:16:42;;;;;;;25.45;15.52;;;;;;;;;;5107405;28;20021;-75
2023/01/03 05:19:28;;;;;;;24.05;14.95;;;;;;;;;;5094874;28;20028;-73
2023/01/03 05:28:22;;;;;;;30.95;18.40;;;;;;;;;;5115976;28;20058;-75
2023/01/03 05:31:08;;;;;;;33.20;20.23;;;;;;;;;;5117310;28;20041;-74
2023/01/03 05:33:54;;;;;;;35.33;21.55;;;;;;;;;;5110655;28;20035;-74
2023/01/03 05:36:42;;;;;;;32.58;21.80;;;;;;;;;;5109829;28;20031;-73
2023/01/03 05:39:27;;;;;;;34.63;21.85;;;;;;;;;;5110510;28;20020;-74
2023/01/03 05:42:13;;;;;;;38.60;22.08;;;;;;;;;;5096539;28;20080;-75
2023/01/03 05:44:58;;;;;;;34.80;22.05;;;;;;;;;;5088470;28;20520;-73
2023/01/03 05:47:44;;;;;;;32.75;21.77;;;;;;;;;;5101057;28;20122;-74
2023/01/03 05:50:30;;;;;;;33.00;20.60;;;;;;;;;;5087928;28;20027;-73
2023/01/03 05:53:15;;;;;;;32.20;20.73;;;;;;;;;;5100875;28;20031;-75
2023/01/03 05:56:05;;;;;;;35.88;22.80;;;;;;;;;;5100906;28;20012;-75
2023/01/03 05:58:50;;;;;;;35.45;22.55;;;;;;;;;;5100868;28;20031;-74
2023/01/03 06:01:36;;;;;;;36.42;23.25;;;;;;;;;;5085671;28;20055;-74
2023/01/03 06:04:22;;;;;;;41.80;25.80;;;;;;;;;;5102830;28;20091;-75
2023/01/03 06:07:07;;;;;;;42.33;27.10;;;;;;;;;;5102786;28;20032;-75
2023/01/03 06:09:53;;;;;;;42.38;24.52;;;;;;;;;;5101591;28;20020;-74
2023/01/03 06:12:38;;;;;;;35.58;22.63;;;;;;;;;;5101768;28;20050;-75
2023/01/03 06:15:24;;;;;;;31.30;20.00;;;;;;;;;;5111314;28;20046;-75
2023/01/03 06:18:09;;;;;;;40.47;24.02;;;;;;;;;;5101768;28;20024;-74
2023/01/03 06:20:55;;;;;;;28.45;18.77;;;;;;;;;;5119661;28;20353;-76
2023/01/03 06:23:40;;;;;;;35.53;20.00;;;;;;;;;;5105980;28;20034;-74
2023/01/03 06:26:26;;;;;;;34.75;19.13;;;;;;;;;;5118661;28;20456;-74
2023/01/03 06:29:12;;;;;;;33.53;20.70;;;;;;;;;;5102768;28;20057;-74
2023/01/03 06:31:57;;;;;;;33.10;18.20;;;;;;;;;;5116875;28;20016;-74
2023/01/03 06:34:43;;;;;;;31.85;19.45;;;;;;;;;;5112808;28;20020;-74
2023/01/03 06:37:28;;;;;;;33.05;20.95;;;;;;;;;;5114130;28;20036;-74
2023/01/03 06:40:14;;;;;;;37.03;23.00;;;;;;;;;;5113911;28;20327;-74
2023/01/03 06:43:00;;;;;;;41.85;24.15;;;;;;;;;;5112230;28;20103;-74
2023/01/03 06:54:59;;;;;;;35.47;19.73;;;;;;;;;;5110406;28;20054;-73
2023/01/03 06:57:44;;;;;;;30.55;18.70;;;;;;;;;;5092101;28;20357;-74
2023/01/03 07:00:30;;;;;;;31.48;18.48;;;;;;;;;;5102875;28;20056;-74
2023/01/03 07:03:16;;;;;;;34.50;16.80;;;;;;;;;;5103263;28;20361;-74
2023/01/03 07:06:01;;;;;;;31.77;18.15;;;;;;;;;;5104480;28;20017;-74
2023/01/03 07:08:47;;;;;;;27.02;17.85;;;;;;;;;;5088127;28;20016;-76
2023/01/03 07:11:32;;;;;;;33.03;19.50;;;;;;;;;;5101082;28;20012;-74
2023/01/03 07:14:18;;;;;;;31.40;19.67;;;;;;;;;;5100156;28;20046;-74
2023/01/03 07:17:04;;;;;;;29.77;19.60;;;;;;;;;;5083681;28;20027;-75
2023/01/03 07:19:49;;;;;;;32.47;20.73;;;;;;;;;;5082700;28;20350;-74
2023/01/03 07:22:35;;;;;;;33.38;19.60;;;;;;;;;;5099013;28;20024;-74
2023/01/03 07:25:21;;;;;;;29.08;18.70;;;;;;;;;;5099275;28;20043;-74
2023/01/03 07:28:07;;;;;;;27.20;16.70;;;;;;;;;;5086560;28;20023;-74
2023/01/03 07:30:58;;;;;;;30.05;17.42;;;;;;;;;;5098985;28;20420;-75
2023/01/03 07:33:44;;;;;;;27.92;17.67;;;;;;;;;;5098202;28;20504;-75
2023/01/03 07:36:30;;;;;;;29.50;17.60;;;;;;;;;;5100290;28;20020;-75
2023/01/03 07:39:15;;;;;;;28.42;18.48;;;;;;;;;;5098151;28;20027;-74
2023/01/03 07:45:06;;;;;;;28.17;18.30;;;;;;;;;;5097284;28;20354;-74
2023/01/03 07:47:51;;;;;;;27.55;17.27;;;;;;;;;;5097242;28;20122;-75
2023/01/03 07:50:37;;;;;;;28.38;17.15;;;;;;;;;;5097927;28;20448;-75
2023/01/03 07:53:24;;;;;;;30.17;17.83;;;;;;;;;;5083557;28;20405;-75
2023/01/03 07:56:14;;;;;;;31.55;17.85;;;;;;;;;;5083251;28;20035;-77
2023/01/03 07:58:59;;;;;;;34.08;18.60;;;;;;;;;;5095894;28;20358;-75
2023/01/03 08:01:45;;;;;;;31.80;21.23;;;;;;;;;;5083361;28;20045;-75
2023/01/03 08:04:30;;;;;;;34.35;19.05;;;;;;;;;;5076832;28;20461;-74
2023/01/03 08:07:16;;;;;;;33.55;20.15;;;;;;;;;;5062570;28;20032;-75
2023/01/03 08:13:17;;;;;;;37.78;21.40;;;;;;;;;;5076563;28;20059;-75
2023/01/03 08:16:03;;;;;;;34.25;21.88;;;;;;;;;;5076277;28;20029;-75
2023/01/03 08:18:49;;;;;;;33.92;21.35;;;;;;;;;;5075702;28;20028;-75
2023/01/03 08:21:34;;;;;;;35.88;21.42;;;;;;;;;;5061946;28;20013;-75
2023/01/03 08:24:20;;;;;;;33.28;20.95;;;;;;;;;;5076393;28;20462;-75
2023/01/03 08:27:05;;;;;;;28.73;18.13;;;;;;;;;;5060943;28;20482;-75
2023/01/03 08:29:51;;;;;;;28.50;16.90;;;;;;;;;;5076183;28;20024;-75
2023/01/03 08:32:37;;;;;;;26.48;16.67;;;;;;;;;;5061490;28;20074;-74
2023/01/03 08:35:24;;;;;;;26.88;16.45;;;;;;;;;;5075511;28;20024;-75
2023/01/03 08:38:13;;;;;;;28.08;17.02;;;;;;;;;;5075262;28;20504;-75
2023/01/03 08:41:00;;;;;;;32.17;18.65;;;;;;;;;;5075941;28;20017;-76
2023/01/03 08:43:46;;;;;;;26.50;16.52;;;;;;;;;;5075291;28;20107;-75
2023/01/03 08:46:32;;;;;;;25.10;16.13;;;;;;;;;;5059204;28;20421;-75
2023/01/03 08:49:18;;;;;;;26.40;16.35;;;;;;;;;;5059751;28;20017;-76
2023/01/03 08:52:04;;;;;;;25.13;15.45;;;;;;;;;;5074199;28;20392;-75
2023/01/03 08:54:49;;;;;;;22.13;14.50;;;;;;;;;;5074452;28;20100;-76
2023/01/03 08:57:35;;;;;;;20.75;14.00;;;;;;;;;;5076331;28;20439;-75
2023/01/03 09:00:20;;;;;;;18.92;13.05;;;;;;;;;;5077881;28;20125;-76
2023/01/03 09:03:06;;;;;;;21.63;13.25;;;;;;;;;;5095727;28;20414;-76
2023/01/03 09:05:51;;;;;;;21.73;14.10;;;;;;;;;;5096499;28;20355;-76
2023/01/03 09:08:37;;;;;;;28.27;14.82;;;;;;;;;;5079629;28;20023;-76
2023/01/03 09:11:23;;;;;;;22.20;14.75;;;;;;;;;;5094542;28;20012;-76
2023/01/03 09:14:08;;;;;;;23.42;14.90;;;;;;;;;;5093735;28;20039;-77
2023/01/03 09:16:54;;;;;;;27.48;16.38;;;;;;;;;;5079578;28;20020;-75
2023/01/03 09:19:39;;;;;;;25.17;16.42;;;;;;;;;;5095390;28;20103;-75
2023/01/03 09:22:25;;;;;;;27.60;16.10;;;;;;;;;;5078941;28;20039;-77
2023/01/03 09:25:10;;;;;;;22.65;14.27;;;;;;;;;;5094492;28;20111;-74
2023/01/03 09:27:56;;;;;;;23.58;13.13;;;;;;;;;;5079805;28;20020;-76
2023/01/03 09:30:42;;;;;;;18.10;13.02;;;;;;;;;;5098451;28;20028;-76
2023/01/03 09:33:27;;;;;;;24.83;14.25;;;;;;;;;;5082568;28;20020;-75
2023/01/03 09:36:13;;;;;;;20.58;12.73;;;;;;;;;;5108007;28;20071;-75
2023/01/03 09:38:59;;;;;;;21.95;13.70;;;;;;;;;;5094711;28;20438;-77
2023/01/03 09:43:11;;;;;;;22.95;13.60;;;;;;;;;;5093287;28;20012;-76
2023/01/03 09:44:51;;;;;;;21.63;13.95;;;;;;;;;;5093198;28;20024;-76
2023/01/03 09:47:37;;;;;;;49.88;25.60;;;;;;;;;;5093469;28;20350;-76
2023/01/03 09:50:25;;;;;;;25.63;16.00;;;;;;;;;;5080585;28;20043;-75
2023/01/03 10:05:57;;;;;;;21.02;13.73;;;;;;;;;;5093412;28;20027;-76
2023/01/03 10:09:01;;;;;;;19.10;12.45;;;;;;;;;;5083479;28;20016;-75
2023/01/03 10:12:06;;;;;;;17.67;11.93;;;;;;;;;;5097452;28;20048;-75
2023/01/03 10:14:54;;;;;;;19.52;12.45;;;;;;;;;;5097047;28;20115;-75
2023/01/03 10:17:45;;;;;;;22.65;13.23;;;;;;;;;;5096769;28;20020;-76
2023/01/03 10:21:03;;;;;;;18.23;11.35;;;;;;;;;;5081376;28;20408;-75
2023/01/03 10:23:52;;;;;;;16.60;10.63;;;;;;;;;;5048121;28;20028;-75
2023/01/03 10:26:37;;;;;;;18.33;11.20;;;;;;;;;;5083722;28;20066;-76
2023/01/03 10:29:24;;;;;;;17.10;10.95;;;;;;;;;;5082511;28;20034;-77
2023/01/03 10:32:09;;;;;;;16.10;11.05;;;;;;;;;;5095587;28;20478;-76
2023/01/03 10:35:13;;;;;;;16.30;10.32;;;;;;;;;;5096547;28;20039;-76
2023/01/03 10:37:59;;;;;;;17.80;10.40;;;;;;;;;;5097050;28;20027;-75
2023/01/03 10:40:46;;;;;;;16.27;10.77;;;;;;;;;;5083058;28;20446;-75
2023/01/03 10:43:38;;;;;;;15.25;10.60;;;;;;;;;;5082522;28;20028;-76
2023/01/03 10:46:25;;;;;;;16.85;9.82;;;;;;;;;;5096451;28;20039;-76
2023/01/03 10:49:13;;;;;;;14.55;9.63;;;;;;;;;;5096102;28;20031;-76
2023/01/03 10:52:08;;;;;;;14.25;9.63;;;;;;;;;;5096175;28;20016;-76
2023/01/03 10:55:02;;;;;;;15.38;9.05;;;;;;;;;;5081350;28;20085;-75
2023/01/03 10:57:58;;;;;;;12.95;8.90;;;;;;;;;;5096844;28;20107;-75
2023/01/03 11:00:43;;;;;;;17.52;9.07;;;;;;;;;;5096325;28;20062;-75
2023/01/03 11:03:29;;;;;;;14.57;9.98;;;;;;;;;;5081594;28;20012;-76
2023/01/03 11:06:15;;;;;;;14.52;8.90;;;;;;;;;;5096136;28;20369;-75
2023/01/03 11:09:08;;;;;;;16.90;8.70;;;;;;;;;;5095952;28;20024;-75
2023/01/03 11:11:58;;;;;;;23.17;10.02;;;;;;;;;;5098006;28;20027;-76
2023/01/03 11:14:51;;;;;;;14.02;9.40;;;;;;;;;;5096692;28;20119;-75
2023/01/03 11:17:36;;;;;;;17.63;9.93;;;;;;;;;;5096680;28;20027;-76
2023/01/03 11:20:38;;;;;;;19.52;10.30;;;;;;;;;;5080865;28;20020;-76
2023/01/03 11:23:42;;;;;;;14.85;9.88;;;;;;;;;;5080533;28;20020;-74
2023/01/03 11:26:47;;;;;;;19.15;10.43;;;;;;;;;;5080404;28;20081;-75
2023/01/03 11:29:38;;;;;;;16.17;9.77;;;;;;;;;;5080675;28;20446;-75
2023/01/03 11:32:42;;;;;;;17.08;11.20;;;;;;;;;;5095427;28;20568;-75
2023/01/03 11:35:35;;;;;;;17.08;10.90;;;;;;;;;;5080058;28;20506;-75
2023/01/03 11:38:27;;;;;;;18.42;11.38;;;;;;;;;;5094739;28;20378;-75
2023/01/03 11:41:31;;;;;;;15.10;10.40;;;;;;;;;;5079676;28;20016;-75
2023/01/03 11:44:21;;;;;;;16.17;10.95;;;;;;;;;;5095091;28;20024;-74
2023/01/03 11:47:12;;;;;;;17.90;10.27;;;;;;;;;;5080254;28;20035;-76
2023/01/03 11:50:10;;;;;;;16.10;10.52;;;;;;;;;;5094666;28;20163;-76
2023/01/03 11:53:01;;;;;;;17.25;11.25;;;;;;;;;;5095620;28;20031;-76
2023/01/03 11:55:52;;;;;;;17.10;11.48;;;;;;;;;;5095366;28;20085;-76
2023/01/03 11:58:41;;;;;;;15.68;10.90;;;;;;;;;;5080239;28;20020;-75
2023/01/03 12:01:43;;;;;;;18.25;11.60;;;;;;;;;;5094365;28;20036;-75
2023/01/03 12:04:31;;;;;;;16.92;10.85;;;;;;;;;;5094534;28;20031;-75
2023/01/03 12:07:23;;;;;;;17.33;11.05;;;;;;;;;;5094289;28;20327;-74
2023/01/03 12:10:20;;;;;;;16.38;11.55;;;;;;;;;;5079854;28;20035;-75
2023/01/03 12:13:13;;;;;;;19.52;11.40;;;;;;;;;;5079763;28;20462;-74
2023/01/03 12:16:07;;;;;;;16.60;10.48;;;;;;;;;;5094556;28;20079;-75
2023/01/03 12:18:59;;;;;;;15.25;10.45;;;;;;;;;;5082018;28;20031;-75
2023/01/03 12:21:51;;;;;;;14.50;9.65;;;;;;;;;;5079691;28;20095;-75
2023/01/03 12:24:36;;;;;;;18.30;10.88;;;;;;;;;;5094745;28;20024;-74
2023/01/03 12:27:51;;;;;;;17.00;11.30;;;;;;;;;;5093716;28;20023;-75
2023/01/03 12:30:40;;;;;;;14.65;10.45;;;;;;;;;;5078939;28;20054;-75
2023/01/03 12:33:31;;;;;;;16.00;11.30;;;;;;;;;;5094711;28;20039;-75
2023/01/03 12:36:31;;;;;;;18.27;12.18;;;;;;;;;;5079525;28;20020;-75
2023/01/03 12:39:26;;;;;;;19.38;12.40;;;;;;;;;;5094365;28;20315;-75
2023/01/03 12:42:31;;;;;;;22.25;14.00;;;;;;;;;;5078925;28;20014;-76
2023/01/03 12:45:35;;;;;;;21.40;14.02;;;;;;;;;;5094086;28;20087;-76
2023/01/03 12:48:40;;;;;;;18.02;12.20;;;;;;;;;;5078900;28;20382;-74
2023/01/03 12:51:26;;;;;;;21.00;12.88;;;;;;;;;;5094355;28;20081;-74
2023/01/03 12:54:32;;;;;;;16.08;11.70;;;;;;;;;;5093811;28;20024;-74
2023/01/03 12:57:17;;;;;;;18.40;12.18;;;;;;;;;;5094194;28;20016;-76
2023/01/03 13:00:06;;;;;;;20.20;12.70;;;;;;;;;;5093229;28;20031;-76
2023/01/03 13:02:52;;;;;;;18.05;12.20;;;;;;;;;;5079703;28;20420;-75
2023/01/03 13:05:44;;;;;;;19.23;11.93;;;;;;;;;;5078965;28;20092;-75
2023/01/03 13:09:00;;;;;;;17.63;12.50;;;;;;;;;;5093244;28;20024;-75
2023/01/03 13:11:50;;;;;;;18.92;12.35;;;;;;;;;;5065711;28;20088;-75
2023/01/03 13:15:11;;;;;;;17.92;13.13;;;;;;;;;;5093069;28;20396;-76
2023/01/03 13:18:16;;;;;;;20.67;13.30;;;;;;;;;;4979614;28;20041;-76
2023/01/03 13:21:22;;;;;;;18.90;12.63;;;;;;;;;;5088333;28;20441;-75
2023/01/03 13:24:07;;;;;;;19.00;13.50;;;;;;;;;;5092956;28;20028;-75
2023/01/03 13:27:25;;;;;;;21.52;13.63;;;;;;;;;;5078971;28;20028;-75
2023/01/03 13:30:21;;;;;;;19.60;13.05;;;;;;;;;;5027709;28;20032;-75
2023/01/03 13:33:10;;;;;;;19.42;13.55;;;;;;;;;;5072121;28;20099;-76
2023/01/03 13:35:57;;;;;;;19.50;13.48;;;;;;;;;;5077697;28;20062;-74
2023/01/03 13:38:43;;;;;;;20.02;13.30;;;;;;;;;;5093010;28;20350;-75
2023/01/03 13:41:28;;;;;;;20.40;13.70;;;;;;;;;;5093379;28;20059;-76
2023/01/03 13:44:21;;;;;;;19.63;13.85;;;;;;;;;;5097217;28;20074;-75
2023/01/03 13:47:06;;;;;;;21.77;14.45;;;;;;;;;;5096871;28;20106;-76
2023/01/03 13:49:52;;;;;;;28.67;15.45;;;;;;;;;;5096925;28;20030;-75
2023/01/03 13:52:55;;;;;;;20.52;14.63;;;;;;;;;;5097131;28;20383;-76
2023/01/03 13:55:46;;;;;;;24.95;16.42;;;;;;;;;;5097167;28;20039;-75
2023/01/03 13:58:52;;;;;;;26.00;17.10;;;;;;;;;;5097727;28;20019;-75
2023/01/03 14:01:47;;;;;;;27.10;16.33;;;;;;;;;;5096457;28;20123;-75
2023/01/03 14:04:51;;;;;;;22.60;15.07;;;;;;;;;;5097618;28;20411;-75
2023/01/03 14:07:49;;;;;;;24.20;15.45;;;;;;;;;;5097026;28;20031;-75
2023/01/03 14:10:47;;;;;;;27.70;16.58;;;;;;;;;;5097664;28;20107;-75
2023/01/03 14:13:36;;;;;;;23.30;15.70;;;;;;;;;;5096626;28;20023;-75
2023/01/03 14:16:24;;;;;;;22.52;15.38;;;;;;;;;;5096568;28;20032;-75
2023/01/03 14:19:31;;;;;;;25.10;16.00;;;;;;;;;;5097635;28;20070;-75
2023/01/03 14:22:25;;;;;;;26.33;16.83;;;;;;;;;;5083849;28;20020;-76
2023/01/03 14:25:29;;;;;;;26.15;15.93;;;;;;;;;;5098835;28;20020;-74
2023/01/03 14:28:21;;;;;;;23.00;16.08;;;;;;;;;;5110067;28;20027;-75
2023/01/03 14:31:15;;;;;;;29.52;18.13;;;;;;;;;;5098812;28;20112;-75
2023/01/03 14:34:02;;;;;;;23.80;17.02;;;;;;;;;;5096997;28;20020;-74
2023/01/03 14:36:47;;;;;;;25.95;17.95;;;;;;;;;;5083424;28;20082;-75
2023/01/03 14:39:33;;;;;;;25.60;17.67;;;;;;;;;;5082361;28;20027;-75
2023/01/03 14:42:19;;;;;;;29.48;17.45;;;;;;;;;;5096137;28;20044;-76
2023/01/03 14:45:05;;;;;;;27.08;18.30;;;;;;;;;;5082294;28;20115;-76
2023/01/03 14:47:53;;;;;;;27.23;17.80;;;;;;;;;;5104862;28;20039;-75
2023/01/03 14:50:40;;;;;;;29.02;19.13;;;;;;;;;;5083170;28;20016;-75
2023/01/03 14:53:26;;;;;;;29.42;19.45;;;;;;;;;;5081391;28;20020;-76
2023/01/03 14:56:12;;;;;;;25.58;17.35;;;;;;;;;;5096028;28;20430;-75
2023/01/03 14:58:58;;;;;;;29.85;19.30;;;;;;;;;;5083714;28;20077;-75
2023/01/03 15:01:45;;;;;;;24.42;17.90;;;;;;;;;;5095644;28;20097;-75
2023/01/03 15:04:30;;;;;;;28.60;18.20;;;;;;;;;;5096200;28;20412;-76
2023/01/03 15:07:25;;;;;;;29.92;17.58;;;;;;;;;;5081531;28;20035;-74
2023/01/03 15:10:10;;;;;;;27.23;18.60;;;;;;;;;;5095579;28;20039;-74
2023/01/03 15:12:57;;;;;;;26.25;18.20;;;;;;;;;;5096073;28;20398;-75
2023/01/03 15:15:43;;;;;;;27.08;18.02;;;;;;;;;;5095678;28;20035;-75
2023/01/03 15:18:30;;;;;;;25.63;18.27;;;;;;;;;;5096815;28;20012;-74
2023/01/03 15:21:20;;;;;;;29.90;19.88;;;;;;;;;;5095999;28;20091;-74
2023/01/03 15:24:14;;;;;;;32.65;21.10;;;;;;;;;;5096259;28;20098;-75
2023/01/03 15:26:59;;;;;;;28.50;19.05;;;;;;;;;;5081664;28;20089;-75
2023/01/03 15:29:45;;;;;;;28.63;19.15;;;;;;;;;;5095818;28;20081;-74
2023/01/03 15:32:43;;;;;;;33.75;19.20;;;;;;;;;;5095420;28;20031;-75
2023/01/03 15:35:31;;;;;;;27.52;18.73;;;;;;;;;;5095167;28;20035;-76
2023/01/03 15:38:19;;;;;;;30.83;19.38;;;;;;;;;;5080860;28;20332;-76
2023/01/03 15:44:29;;;;;;;30.08;20.13;;;;;;;;;;5095821;28;20408;-76
2023/01/03 15:47:16;;;;;;;31.05;20.33;;;;;;;;;;5081163;28;20112;-75
2023/01/03 15:50:03;;;;;;;30.08;21.00;;;;;;;;;;5095339;28;20028;-75
2023/01/03 15:52:48;;;;;;;38.10;21.90;;;;;;;;;;5095069;28;20016;-75
2023/01/03 15:55:34;;;;;;;36.80;23.05;;;;;;;;;;5096155;28;20024;-75
2023/01/03 15:58:20;;;;;;;36.80;22.02;;;;;;;;;;5094915;28;20073;-75
2023/01/03 16:01:06;;;;;;;36.97;22.58;;;;;;;;;;5094419;28;20036;-76
2023/01/03 16:03:52;;;;;;;36.08;23.17;;;;;;;;;;5095004;28;20019;-75
2023/01/03 16:06:37;;;;;;;38.92;24.80;;;;;;;;;;5081169;28;20020;-76
2023/01/03 16:09:23;;;;;;;38.65;23.25;;;;;;;;;;5080228;28;20418;-75
2023/01/03 16:12:18;;;;;;;39.00;23.95;;;;;;;;;;5080903;28;20028;-76
2023/01/03 16:15:07;;;;;;;39.53;23.75;;;;;;;;;;5094675;28;20032;-76
2023/01/03 16:17:52;;;;;;;41.90;24.95;;;;;;;;;;5081273;28;20111;-75
2023/01/03 16:20:38;;;;;;;39.38;24.55;;;;;;;;;;5093765;28;20016;-76
2023/01/03 16:23:26;;;;;;;39.30;24.63;;;;;;;;;;5095775;28;20322;-75
2023/01/03 16:26:12;;;;;;;42.13;26.40;;;;;;;;;;5080618;28;20016;-75
2023/01/03 16:28:58;;;;;;;46.50;27.60;;;;;;;;;;5080902;28;20016;-75
2023/01/03 16:31:44;;;;;;;41.45;26.92;;;;;;;;;;5099189;28;20469;-76
2023/01/03 16:34:30;;;;;;;36.35;24.58;;;;;;;;;;5094213;28;20028;-75
2023/01/03 16:37:15;;;;;;;40.30;25.77;;;;;;;;;;5094535;28;20154;-74
2023/01/03 16:40:01;;;;;;;46.60;27.85;;;;;;;;;;5094452;28;20024;-75
2023/01/03 16:42:47;;;;;;;45.22;27.35;;;;;;;;;;5094478;28;20453;-74
2023/01/03 16:45:32;;;;;;;47.58;28.98;;;;;;;;;;5080703;28;20024;-74
2023/01/03 16:48:22;;;;;;;47.75;30.27;;;;;;;;;;5079447;28;20046;-74
2023/01/03 16:51:15;;;;;;;51.78;29.73;;;;;;;;;;5093744;28;20039;-74
2023/01/03 16:54:02;;;;;;;46.60;28.02;;;;;;;;;;5094479;28;20111;-75
2023/01/03 16:56:48;;;;;;;51.20;29.75;;;;;;;;;;5093779;28;20020;-75
2023/01/03 16:59:34;;;;;;;46.10;29.80;;;;;;;;;;5094114;28;20024;-73
2023/01/03 17:02:19;;;;;;;47.45;29.42;;;;;;;;;;5093275;28;20040;-74
2023/01/03 17:05:05;;;;;;;50.65;29.67;;;;;;;;;;5093866;28;20027;-75
2023/01/03 17:07:51;;;;;;;46.35;28.50;;;;;;;;;;5094031;28;20086;-74
2023/01/03 17:10:40;;;;;;;49.35;29.80;;;;;;;;;;5094090;28;20390;-74
2023/01/03 17:13:26;;;;;;;52.10;30.25;;;;;;;;;;5094383;28;20024;-74
2023/01/03 17:16:13;;;;;;;57.45;32.85;;;;;;;;;;5078953;28;20105;-75
2023/01/03 17:18:59;;;;;;;59.70;34.78;;;;;;;;;;5079892;28;20024;-74
2023/01/03 17:21:44;;;;;;;55.47;32.83;;;;;;;;;;5092516;28;20023;-75
2023/01/03 17:24:30;;;;;;;63.90;35.13;;;;;;;;;;5079343;28;20024;-74
2023/01/03 17:27:20;;;;;;;62.60;36.80;;;;;;;;;;5093428;28;20048;-74